createdAt,value
2023-03-13T00:00:10.699Z,2.93
2023-03-13T00:02:56.173Z,3.47
2023-03-13T00:05:41.598Z,3.30
2023-03-13T00:08:29.889Z,3.20
2023-03-13T00:11:15.923Z,3.27
2023-03-13T00:14:03.383Z,3.20
2023-03-13T00:16:49.103Z,3.43
2023-03-13T00:19:34.628Z,2.93
2023-03-13T00:22:20.107Z,2.87
2023-03-13T00:25:05.948Z,3.30
2023-03-13T00:27:51.342Z,2.93
2023-03-13T00:30:36.730Z,2.93
2023-03-13T00:33:21.711Z,3.03
2023-03-13T00:36:09.845Z,3.00
2023-03-13T00:38:56.542Z,3.00
2023-03-13T00:41:42.090Z,2.93
2023-03-13T00:44:27.584Z,3.03
2023-03-13T00:47:12.754Z,2.93
2023-03-13T00:49:58.161Z,3.20
2023-03-13T00:52:43.590Z,3.30
2023-03-13T00:55:28.864Z,3.20
2023-03-13T00:58:14.033Z,3.43
2023-03-13T01:01:08.068Z,3.47
2023-03-13T01:03:55.887Z,3.00
2023-03-13T01:06:41.879Z,2.80
2023-03-13T01:09:27.426Z,3.00
2023-03-13T01:12:12.662Z,3.03
2023-03-13T01:14:58.117Z,2.93
2023-03-13T01:17:44.275Z,3.20
2023-03-13T01:20:31.009Z,2.90
2023-03-13T01:23:16.405Z,2.90
2023-03-13T01:26:05.169Z,2.90
2023-03-13T01:28:51.502Z,2.80
2023-03-13T01:31:37.727Z,2.80
2023-03-13T01:34:25.307Z,3.10
2023-03-13T01:37:10.852Z,2.73
2023-03-13T01:39:55.933Z,2.70
2023-03-13T01:42:56.171Z,3.10
2023-03-13T01:46:08.570Z,2.70
2023-03-13T01:49:17.757Z,3.17
2023-03-13T01:52:32.800Z,2.93
2023-03-13T01:55:26.988Z,3.10
2023-03-13T01:58:12.402Z,2.97
2023-03-13T02:00:58.837Z,2.87
2023-03-13T02:03:44.314Z,3.07
2023-03-13T02:06:32.842Z,2.93
2023-03-13T02:09:23.111Z,3.13
2023-03-13T02:12:14.677Z,3.40
2023-03-13T02:15:04.270Z,3.50
2023-03-13T02:17:51.459Z,2.83
2023-03-13T02:20:39.173Z,3.07
2023-03-13T02:23:34.367Z,2.80
2023-03-13T02:26:19.691Z,2.90
2023-03-13T02:29:05.239Z,2.87
2023-03-13T02:31:51.335Z,3.03
2023-03-13T02:34:40.320Z,3.10
2023-03-13T02:37:29.316Z,2.90
2023-03-13T02:40:18.664Z,3.57
2023-03-13T02:43:11.022Z,2.73
2023-03-13T02:46:08.662Z,3.17
2023-03-13T02:48:57.833Z,2.90
2023-03-13T02:51:45.582Z,3.10
2023-03-13T02:54:38.870Z,3.27
2023-03-13T02:57:24.807Z,2.97
2023-03-13T03:00:10.932Z,2.70
2023-03-13T03:02:56.334Z,3.00
2023-03-13T03:05:41.724Z,2.73
2023-03-13T03:08:27.718Z,2.73
2023-03-13T03:11:13.094Z,2.80
2023-03-13T03:13:59.500Z,2.87
2023-03-13T03:16:47.832Z,2.60
2023-03-13T03:19:32.946Z,2.97
2023-03-13T03:22:19.178Z,2.47
2023-03-13T03:25:05.148Z,2.93
2023-03-13T03:27:50.539Z,3.40
2023-03-13T03:30:36.426Z,2.83
2023-03-13T03:33:22.874Z,2.97
2023-03-13T03:36:12.168Z,3.03
2023-03-13T03:38:58.193Z,3.00
2023-03-13T03:41:45.687Z,3.03
2023-03-13T03:44:30.764Z,3.27
2023-03-13T03:47:18.167Z,3.30
2023-03-13T03:50:06.452Z,3.07
2023-03-13T03:52:58.357Z,2.70
2023-03-13T03:55:44.870Z,3.30
2023-03-13T03:58:30.486Z,3.20
2023-03-13T04:01:23.430Z,2.80
2023-03-13T04:04:08.791Z,2.57
2023-03-13T04:06:59.085Z,2.97
2023-03-13T04:09:46.639Z,2.80
2023-03-13T04:12:40.376Z,3.03
2023-03-13T04:15:27.752Z,2.40
2023-03-13T04:18:13.427Z,2.37
2023-03-13T04:21:03.602Z,2.23
2023-03-13T04:23:54.968Z,2.33
2023-03-13T04:26:40.747Z,2.70
2023-03-13T04:29:26.524Z,2.83
2023-03-13T04:32:22.891Z,2.40
2023-03-13T04:35:21.258Z,2.60
2023-03-13T04:38:25.460Z,2.67
2023-03-13T04:41:34.028Z,2.60
2023-03-13T04:44:38.200Z,2.50
2023-03-13T04:47:54.049Z,2.60
2023-03-13T04:51:02.370Z,2.30
2023-03-13T04:54:11.458Z,2.57
2023-03-13T04:57:09.646Z,2.53
2023-03-13T05:00:20.974Z,2.20
2023-03-13T05:03:22.005Z,2.10
2023-03-13T05:06:15.318Z,2.37
2023-03-13T05:09:21.907Z,2.60
2023-03-13T05:12:25.883Z,2.53
2023-03-13T05:15:24.365Z,2.57
2023-03-13T05:18:28.888Z,2.27
2023-03-13T05:21:36.037Z,2.33
2023-03-13T05:24:38.647Z,2.17
2023-03-13T05:27:43.607Z,2.10
2023-03-13T05:30:52.146Z,2.40
2023-03-13T05:33:40.543Z,2.63
2023-03-13T05:36:25.949Z,2.00
2023-03-13T05:39:37.586Z,2.40
2023-03-13T05:42:41.770Z,2.13
2023-03-13T05:45:47.416Z,1.87
2023-03-13T05:48:51.862Z,1.73
2023-03-13T05:52:16.234Z,1.83
2023-03-13T05:55:21.882Z,1.63
2023-03-13T05:58:25.955Z,1.70
2023-03-13T06:01:37.221Z,1.63
2023-03-13T06:04:44.770Z,1.50
2023-03-13T06:07:29.906Z,1.57
2023-03-13T06:10:15.710Z,1.20
2023-03-13T06:13:10.699Z,1.80
2023-03-13T06:16:03.573Z,1.40
2023-03-13T06:19:01.930Z,1.50
2023-03-13T06:21:47.315Z,1.43
2023-03-13T06:24:32.916Z,1.37
2023-03-13T06:27:19.302Z,1.20
2023-03-13T06:30:04.734Z,1.40
2023-03-13T06:32:50.181Z,1.43
2023-03-13T06:35:46.147Z,1.43
2023-03-13T06:38:38.789Z,1.47
2023-03-13T06:41:24.050Z,1.23
2023-03-13T06:44:10.023Z,1.50
2023-03-13T06:46:55.314Z,1.30
2023-03-13T06:49:40.376Z,1.40
2023-03-13T06:52:37.451Z,1.27
2023-03-13T06:55:27.070Z,1.43
2023-03-13T06:58:25.296Z,1.40
2023-03-13T07:01:17.882Z,1.53
2023-03-13T07:04:03.580Z,1.60
2023-03-13T07:06:48.995Z,1.30
2023-03-13T07:09:34.511Z,1.70
2023-03-13T07:12:19.665Z,1.57
2023-03-13T07:15:05.978Z,1.50
2023-03-13T07:17:51.385Z,1.67
2023-03-13T07:20:36.847Z,1.20
2023-03-13T07:23:23.590Z,1.15
2023-03-13T07:26:16.329Z,1.20
2023-03-13T07:29:01.844Z,1.00
2023-03-13T07:31:47.018Z,1.00
2023-03-13T07:34:32.312Z,0.90
2023-03-13T07:37:17.722Z,0.90
2023-03-13T07:40:03.014Z,1.47
2023-03-13T07:42:48.189Z,1.27
2023-03-13T07:45:33.782Z,1.10
2023-03-13T07:48:19.835Z,1.13
2023-03-13T07:51:07.745Z,1.10
2023-03-13T07:53:53.912Z,1.00
2023-03-13T07:56:40.288Z,1.00
2023-03-13T07:59:25.655Z,1.10
2023-03-13T08:02:12.841Z,1.07
2023-03-13T08:04:59.121Z,0.90
2023-03-13T08:07:45.108Z,1.00
2023-03-13T08:10:31.339Z,1.20
2023-03-13T08:13:16.922Z,1.10
2023-03-13T08:16:08.133Z,1.23
2023-03-13T08:18:55.692Z,1.20
2023-03-13T08:21:41.069Z,1.30
2023-03-13T08:24:26.287Z,1.35
2023-03-13T08:27:11.326Z,1.23
2023-03-13T08:29:56.496Z,1.50
2023-03-13T08:32:42.184Z,1.27
2023-03-13T08:35:29.182Z,1.40
2023-03-13T08:38:14.482Z,1.40
2023-03-13T08:40:59.796Z,1.38
2023-03-13T08:43:46.166Z,1.67
2023-03-13T08:46:33.530Z,1.40
2023-03-13T08:49:19.125Z,1.45
2023-03-13T08:52:07.845Z,1.40
2023-03-13T08:54:53.199Z,1.50
2023-03-13T08:57:38.728Z,1.48
2023-03-13T09:00:23.969Z,1.60
2023-03-13T09:03:09.151Z,1.70
2023-03-13T09:05:56.717Z,1.50
2023-03-13T09:08:42.091Z,1.80
2023-03-13T09:11:27.840Z,1.70
2023-03-13T09:14:13.172Z,1.75
2023-03-13T09:16:58.333Z,1.60
2023-03-13T09:19:59.132Z,1.80
2023-03-13T09:22:45.324Z,1.77
2023-03-13T09:25:30.549Z,1.70
2023-03-13T09:28:15.954Z,1.70
2023-03-13T09:31:29.107Z,1.90
2023-03-13T09:34:14.485Z,1.90
2023-03-13T09:36:59.798Z,1.83
2023-03-13T09:39:45.213Z,2.05
2023-03-13T09:42:53.079Z,1.75
2023-03-13T09:45:44.956Z,1.90
2023-03-13T09:48:34.238Z,1.80
2023-03-13T09:51:25.856Z,1.92
2023-03-13T09:54:31.437Z,1.70
2023-03-13T09:57:23.900Z,1.45
2023-03-13T10:00:17.109Z,1.58
2023-03-13T10:03:12.393Z,1.77
2023-03-13T10:06:06.509Z,1.63
2023-03-13T10:08:52.085Z,1.55
2023-03-13T10:11:47.519Z,1.40
2023-03-13T10:14:57.359Z,1.65
2023-03-13T10:17:42.842Z,1.73
2023-03-13T10:20:35.186Z,1.33
2023-03-13T10:23:59.319Z,1.40
2023-03-13T10:26:44.749Z,1.10
2023-03-13T10:29:30.999Z,1.15
2023-03-13T10:32:17.675Z,1.30
2023-03-13T10:35:03.275Z,1.02
2023-03-13T10:37:48.718Z,1.10
2023-03-13T10:40:34.092Z,1.27
2023-03-13T10:43:22.497Z,1.10
2023-03-13T10:46:09.027Z,1.13
2023-03-13T10:48:55.744Z,1.10
2023-03-13T10:51:49.078Z,1.30
2023-03-13T10:54:39.433Z,1.20
2023-03-13T10:57:24.790Z,1.30
2023-03-13T11:00:35.437Z,1.10
2023-03-13T11:03:31.205Z,1.23
2023-03-13T11:06:31.834Z,1.30
2023-03-13T11:09:17.547Z,1.10
2023-03-13T11:12:06.920Z,1.35
2023-03-13T11:15:00.369Z,1.58
2023-03-13T11:17:52.238Z,1.33
2023-03-13T11:20:41.627Z,1.45
2023-03-13T11:23:43.091Z,1.50
2023-03-13T11:26:37.755Z,1.60
2023-03-13T11:29:49.071Z,1.50
2023-03-13T11:32:51.330Z,1.40
2023-03-13T11:35:44.876Z,1.60
2023-03-13T11:39:18.015Z,1.30
2023-03-13T11:42:21.386Z,1.33
2023-03-13T11:45:18.775Z,1.30
2023-03-13T11:48:04.046Z,1.67
2023-03-13T11:51:05.038Z,1.50
2023-03-13T11:54:14.579Z,1.55
2023-03-13T11:57:08.754Z,1.80
2023-03-13T12:00:33.158Z,1.52
2023-03-13T12:03:21.669Z,1.20
2023-03-13T12:06:27.638Z,1.40
2023-03-13T12:09:34.617Z,1.67
2023-03-13T12:12:43.089Z,1.58
2023-03-13T12:15:34.640Z,1.52
2023-03-13T12:18:20.074Z,1.50
2023-03-13T12:21:30.076Z,1.45
2023-03-13T12:24:43.219Z,1.60
2023-03-13T12:27:38.582Z,1.50
2023-03-13T12:30:38.979Z,1.60
2023-03-13T12:33:56.049Z,1.73
2023-03-13T12:37:04.127Z,1.50
2023-03-13T12:40:03.705Z,1.55
2023-03-13T12:43:10.964Z,1.52
2023-03-13T12:45:59.355Z,1.30
2023-03-13T12:48:50.541Z,1.40
2023-03-13T12:51:57.129Z,1.50
2023-03-13T12:55:13.812Z,1.55
2023-03-13T12:58:23.807Z,1.40
2023-03-13T13:01:17.017Z,1.60
2023-03-13T13:04:13.600Z,1.70
2023-03-13T13:07:06.048Z,1.70
2023-03-13T13:10:09.700Z,1.40
2023-03-13T13:13:13.448Z,1.67
2023-03-13T13:16:06.121Z,1.52
2023-03-13T13:18:51.594Z,1.60
2023-03-13T13:21:37.359Z,1.60
2023-03-13T13:24:48.217Z,1.40
2023-03-13T13:27:33.289Z,1.63
2023-03-13T13:30:18.471Z,1.58
2023-03-13T13:33:18.927Z,1.42
2023-03-13T13:36:10.468Z,1.58
2023-03-13T13:38:56.545Z,1.50
2023-03-13T13:41:42.526Z,1.92
2023-03-13T13:44:29.963Z,1.70
2023-03-13T13:47:25.112Z,1.50
2023-03-13T13:50:22.970Z,1.52
2023-03-13T13:53:32.463Z,1.70
2023-03-13T13:56:38.007Z,1.45
2023-03-13T13:59:23.106Z,1.52
2023-03-13T14:02:10.138Z,1.50
2023-03-13T14:05:07.095Z,1.73
2023-03-13T14:08:01.052Z,1.70
2023-03-13T14:11:04.750Z,1.90
2023-03-13T14:14:09.698Z,1.98
2023-03-13T14:16:56.596Z,1.80
2023-03-13T14:19:43.174Z,1.98
2023-03-13T14:22:44.771Z,2.25
2023-03-13T14:25:51.179Z,1.42
2023-03-13T14:28:40.095Z,1.85
2023-03-13T14:31:51.777Z,1.80
2023-03-13T14:34:37.299Z,1.52
2023-03-13T14:37:42.658Z,1.95
2023-03-13T14:40:30.329Z,2.00
2023-03-13T14:43:42.720Z,1.67
2023-03-13T14:46:35.564Z,1.85
2023-03-13T14:49:23.234Z,1.70
2023-03-13T14:52:20.205Z,1.73
2023-03-13T14:55:25.831Z,1.85
2023-03-13T14:58:19.925Z,1.70
2023-03-13T15:01:31.848Z,1.80
2023-03-13T15:04:17.253Z,2.00
2023-03-13T15:07:03.733Z,1.67
2023-03-13T15:09:50.038Z,1.90
2023-03-13T15:12:43.561Z,1.95
2023-03-13T15:15:28.756Z,1.77
2023-03-13T15:18:25.585Z,1.60
2023-03-13T15:21:13.804Z,1.70
2023-03-13T15:24:02.846Z,2.15
2023-03-13T15:26:49.182Z,1.95
2023-03-13T15:29:34.911Z,1.55
2023-03-13T15:32:27.250Z,1.90
2023-03-13T15:35:22.184Z,2.50
2023-03-13T15:38:13.326Z,1.83
2023-03-13T15:40:58.840Z,2.10
2023-03-13T15:43:44.081Z,2.08
2023-03-13T15:46:29.714Z,2.00
2023-03-13T15:49:15.062Z,2.08
2023-03-13T15:52:00.451Z,2.00
2023-03-13T15:54:46.667Z,2.13
2023-03-13T15:57:32.796Z,2.63
2023-03-13T16:00:24.419Z,2.40
2023-03-13T16:03:16.560Z,2.35
2023-03-13T16:06:01.710Z,2.50
2023-03-13T16:08:47.688Z,2.80
2023-03-13T16:11:34.353Z,2.80
2023-03-13T16:14:19.653Z,2.60
2023-03-13T16:17:14.040Z,3.40
2023-03-13T16:19:59.624Z,2.80
2023-03-13T16:22:46.404Z,2.88
2023-03-13T16:25:32.124Z,2.78
2023-03-13T16:28:17.277Z,2.70
2023-03-13T16:31:02.689Z,2.53
2023-03-13T16:33:48.972Z,2.88
2023-03-13T16:36:36.016Z,2.97
2023-03-13T16:39:21.454Z,2.72
2023-03-13T16:42:06.697Z,2.47
2023-03-13T16:44:52.101Z,2.55
2023-03-13T16:47:37.809Z,2.35
2023-03-13T16:50:31.418Z,2.60
2023-03-13T16:53:16.815Z,2.58
2023-03-13T16:56:02.176Z,2.42
2023-03-13T16:58:47.790Z,2.80
2023-03-13T17:01:33.103Z,2.20
2023-03-13T17:04:18.818Z,1.90
2023-03-13T17:07:15.863Z,2.10
2023-03-13T17:10:02.224Z,2.20
2023-03-13T17:12:48.274Z,2.00
2023-03-13T17:15:33.791Z,1.70
2023-03-13T17:18:19.302Z,1.90
2023-03-13T17:21:04.866Z,1.77
2023-03-13T17:23:51.406Z,1.65
2023-03-13T17:26:38.664Z,1.60
2023-03-13T17:29:23.892Z,1.38
2023-03-13T17:32:13.490Z,1.52
2023-03-13T17:34:59.031Z,1.60
2023-03-13T17:37:44.221Z,1.50
2023-03-13T17:40:29.948Z,1.60
2023-03-13T17:43:15.326Z,1.40
2023-03-13T17:46:00.784Z,1.20
2023-03-13T17:48:48.857Z,0.90
2023-03-13T17:51:35.461Z,1.00
2023-03-13T17:54:20.866Z,1.10
2023-03-13T17:57:20.771Z,1.35
2023-03-13T18:00:15.027Z,0.90
2023-03-13T18:03:00.498Z,0.85
2023-03-13T18:05:46.351Z,0.85
2023-03-13T18:08:31.555Z,1.05
2023-03-13T18:11:18.310Z,0.95
2023-03-13T18:14:05.095Z,1.05
2023-03-13T18:16:50.554Z,1.10
2023-03-13T18:19:35.656Z,0.90
2023-03-13T18:22:21.393Z,0.93
2023-03-13T18:25:06.963Z,1.25
2023-03-13T18:27:53.081Z,1.10
2023-03-13T18:30:39.151Z,1.10
2023-03-13T18:33:24.712Z,1.00
2023-03-13T18:36:19.812Z,1.00
2023-03-13T18:39:05.952Z,1.13
2023-03-13T18:41:50.960Z,1.00
2023-03-13T18:44:36.783Z,1.15
2023-03-13T18:47:22.447Z,0.93
2023-03-13T18:50:24.756Z,1.15
2023-03-13T18:53:09.964Z,1.00
2023-03-13T18:55:55.725Z,1.10
2023-03-13T18:58:42.407Z,0.90
2023-03-13T19:01:30.301Z,1.00
2023-03-13T19:04:16.185Z,1.08
2023-03-13T19:07:01.663Z,1.10
2023-03-13T19:09:47.653Z,3.90
2023-03-13T19:12:33.023Z,1.23
2023-03-13T19:15:18.965Z,1.20
2023-03-13T19:18:04.442Z,1.15
2023-03-13T19:20:49.704Z,1.20
2023-03-13T19:23:34.822Z,1.10
2023-03-13T19:26:23.040Z,1.08
2023-03-13T19:29:20.610Z,1.10
2023-03-13T19:32:06.016Z,1.00
2023-03-13T19:34:51.518Z,0.98
2023-03-13T19:37:36.905Z,1.13
2023-03-13T19:40:25.985Z,0.90
2023-03-13T19:43:11.641Z,1.00
2023-03-13T19:45:56.936Z,1.42
2023-03-13T19:48:42.257Z,1.30
2023-03-13T19:51:29.184Z,1.60
2023-03-13T19:54:15.240Z,1.30
2023-03-13T19:57:00.652Z,1.10
2023-03-13T19:59:46.473Z,1.13
2023-03-13T20:02:31.683Z,1.10
2023-03-13T20:05:20.529Z,1.05
2023-03-13T20:08:05.850Z,1.30
2023-03-13T20:10:51.186Z,1.00
2023-03-13T20:13:37.388Z,1.00
2023-03-13T20:16:23.990Z,1.10
2023-03-13T20:19:09.510Z,1.08
2023-03-13T20:21:54.704Z,0.77
2023-03-13T20:24:39.905Z,0.90
2023-03-13T20:27:25.381Z,0.98
2023-03-13T20:30:11.172Z,0.82
2023-03-13T20:32:59.865Z,0.80
2023-03-13T20:35:45.305Z,1.15
2023-03-13T20:38:31.234Z,1.00
2023-03-13T20:41:16.823Z,0.80
2023-03-13T20:44:02.125Z,0.93
2023-03-13T20:46:47.706Z,0.70
2023-03-13T20:49:33.030Z,0.95
2023-03-13T20:52:18.100Z,0.80
2023-03-13T20:55:03.486Z,0.73
2023-03-13T20:57:48.572Z,0.60
2023-03-13T21:00:33.993Z,0.70
2023-03-13T21:03:19.364Z,0.60
2023-03-13T21:06:16.781Z,0.60
2023-03-13T21:09:02.110Z,0.60
2023-03-13T21:11:47.265Z,0.50
2023-03-13T21:14:32.918Z,0.70
2023-03-13T21:17:18.007Z,0.70
2023-03-13T21:20:05.334Z,0.60
2023-03-13T21:22:51.301Z,0.60
2023-03-13T21:25:36.766Z,0.70
2023-03-13T21:28:22.166Z,0.68
2023-03-13T21:31:15.954Z,0.73
2023-03-13T21:34:01.225Z,0.73
2023-03-13T21:36:46.750Z,0.95
2023-03-13T21:39:31.928Z,0.60
2023-03-13T21:42:17.064Z,0.47
2023-03-13T21:45:06.194Z,0.70
2023-03-13T21:47:51.572Z,0.75
2023-03-13T21:50:36.938Z,0.50
2023-03-13T21:53:22.585Z,0.40
2023-03-13T21:56:08.572Z,0.50
2023-03-13T21:58:54.194Z,0.63
2023-03-13T22:01:39.692Z,0.60
2023-03-13T22:04:26.215Z,0.47
2023-03-13T22:07:11.503Z,0.70
2023-03-13T22:09:57.660Z,0.30
2023-03-13T22:12:42.840Z,0.50
2023-03-13T22:15:28.177Z,0.80
2023-03-13T22:18:14.920Z,0.60
2023-03-13T22:21:00.547Z,0.35
2023-03-13T22:23:46.366Z,0.73
2023-03-13T22:26:31.941Z,0.70
2023-03-13T22:29:17.156Z,0.70
2023-03-13T22:32:02.885Z,0.60
2023-03-13T22:34:47.938Z,0.50
2023-03-13T22:37:33.337Z,0.43
2023-03-13T22:40:18.616Z,0.68
2023-03-13T22:43:03.909Z,0.50
2023-03-13T22:45:49.343Z,0.43
2023-03-13T22:48:36.418Z,0.40
2023-03-13T22:51:21.817Z,0.52
2023-03-13T22:54:06.966Z,0.55
2023-03-13T22:56:52.451Z,0.50
2023-03-13T22:59:37.527Z,0.60
2023-03-13T23:02:22.698Z,0.52
2023-03-13T23:05:08.338Z,0.70
2023-03-13T23:07:53.719Z,0.80
2023-03-13T23:10:42.268Z,0.70
2023-03-13T23:13:27.504Z,0.60
2023-03-13T23:16:13.462Z,0.68
2023-03-13T23:18:58.784Z,0.80
2023-03-13T23:21:44.219Z,0.80
2023-03-13T23:24:29.658Z,0.90
2023-03-13T23:27:15.118Z,0.80
2023-03-13T23:30:00.524Z,1.02
2023-03-13T23:32:47.172Z,0.80
2023-03-13T23:35:32.620Z,0.70
2023-03-13T23:38:18.054Z,0.75
2023-03-13T23:41:12.581Z,0.88
2023-03-13T23:43:58.370Z,0.80
2023-03-13T23:46:43.549Z,0.95
2023-03-13T23:49:29.117Z,0.82
2023-03-13T23:52:14.531Z,1.00
2023-03-13T23:55:00.314Z,0.90
2023-03-13T23:57:48.815Z,0.93
